createdAt,value
2018-08-25T00:00:07.355Z,1001.99
2018-08-25T00:00:47.807Z,1001.97
2018-08-25T00:01:28.265Z,1001.99
2018-08-25T00:02:08.558Z,1001.95
2018-08-25T00:02:49.006Z,1001.95
2018-08-25T00:03:29.418Z,1001.9
2018-08-25T00:04:09.808Z,1001.88
2018-08-25T00:04:50.228Z,1001.92
2018-08-25T00:05:30.712Z,1001.85
2018-08-25T00:06:11.128Z,1001.84
2018-08-25T00:06:51.478Z,1001.86
2018-08-25T00:07:31.956Z,1001.87
2018-08-25T00:08:12.352Z,1001.8
2018-08-25T00:08:52.824Z,1001.86
2018-08-25T00:09:33.252Z,1001.81
2018-08-25T00:10:13.600Z,1001.78
2018-08-25T00:10:54.003Z,1001.78
2018-08-25T00:11:34.516Z,1001.77
2018-08-25T00:12:14.829Z,1001.79
2018-08-25T00:12:55.384Z,1001.78
2018-08-25T00:13:35.707Z,1001.76
2018-08-25T00:14:16.142Z,1001.78
2018-08-25T00:14:56.486Z,1001.75
2018-08-25T00:15:36.987Z,1001.73
2018-08-25T00:16:17.409Z,1001.73
2018-08-25T00:16:57.801Z,1001.68
2018-08-25T00:17:38.201Z,1001.7
2018-08-25T00:18:18.554Z,1001.72
2018-08-25T00:18:58.980Z,1001.7
2018-08-25T00:19:39.410Z,1001.64
2018-08-25T00:20:19.803Z,1001.69
2018-08-25T00:22:21.360Z,1001.65
2018-08-25T00:23:14.262Z,1001.63
2018-08-25T00:24:06.472Z,1001.6
2018-08-25T00:24:58.796Z,1001.56
2018-08-25T00:25:50.877Z,1001.6
2018-08-25T00:28:01.316Z,1001.49
2018-08-25T00:28:54.965Z,1001.45
2018-08-25T00:29:49.991Z,1001.48
2018-08-25T00:30:51.041Z,1001.44
2018-08-25T00:33:23.683Z,1001.39
2018-08-25T00:34:20.313Z,1001.33
2018-08-25T00:35:14.447Z,1001.37
2018-08-25T00:37:42.758Z,1001.32
2018-08-25T00:39:58.183Z,1001.27
2018-08-25T00:40:53.291Z,1001.25
2018-08-25T00:42:55.490Z,1001.24
2018-08-25T00:43:35.946Z,1001.23
2018-08-25T00:44:16.629Z,1001.25
2018-08-25T00:44:56.857Z,1001.23
2018-08-25T00:45:37.262Z,1001.25
2018-08-25T00:46:17.705Z,1001.23
2018-08-25T00:46:58.135Z,1001.26
2018-08-25T00:47:38.873Z,1001.27
2018-08-25T00:48:19.081Z,1001.25
2018-08-25T00:48:59.518Z,1001.23
2018-08-25T00:49:39.922Z,1001.23
2018-08-25T00:50:20.326Z,1001.24
2018-08-25T00:51:00.738Z,1001.24
2018-08-25T00:51:41.262Z,1001.19
2018-08-25T00:52:21.626Z,1001.22
2018-08-25T00:53:02.042Z,1001.19
2018-08-25T00:53:42.719Z,1001.21
2018-08-25T00:54:22.805Z,1001.22
2018-08-25T00:55:03.216Z,1001.19
2018-08-25T00:55:43.696Z,1001.19
2018-08-25T00:56:24.121Z,1001.2
2018-08-25T00:57:04.502Z,1001.17
2018-08-25T00:57:46.865Z,1001.18
2018-08-25T00:58:27.360Z,1001.14
2018-08-25T00:59:07.998Z,1001.09
2018-08-25T00:59:48.285Z,1001.1
2018-08-25T01:00:28.759Z,1001.11
2018-08-25T01:01:09.132Z,1001.1
2018-08-25T01:01:49.550Z,1001.11
2018-08-25T01:02:29.968Z,1001.11
2018-08-25T01:03:10.517Z,1001.08
2018-08-25T01:03:50.803Z,1001.05
2018-08-25T01:04:31.266Z,1001.05
2018-08-25T01:05:11.609Z,1001.05
2018-08-25T01:05:52.062Z,1001.08
2018-08-25T01:06:32.445Z,1001.09
2018-08-25T01:07:12.879Z,1001.05
2018-08-25T01:07:53.577Z,1001.02
2018-08-25T01:08:33.790Z,1001.03
2018-08-25T01:09:14.148Z,1001.04
2018-08-25T01:09:54.607Z,1000.99
2018-08-25T01:10:34.964Z,1001.01
2018-08-25T01:11:15.348Z,1001.04
2018-08-25T01:11:55.800Z,1001.03
2018-08-25T01:12:36.240Z,1001.03
2018-08-25T01:13:16.634Z,1001.03
2018-08-25T01:13:57.018Z,1001.04
2018-08-25T01:14:37.529Z,1001.01
2018-08-25T01:15:17.906Z,1000.97
2018-08-25T01:15:58.389Z,1001
2018-08-25T01:16:38.731Z,1000.98
2018-08-25T01:17:19.186Z,1000.97
2018-08-25T01:17:59.575Z,1000.99
2018-08-25T01:18:40.050Z,1000.97
2018-08-25T01:19:20.419Z,1000.94
2018-08-25T01:20:00.836Z,1000.96
2018-08-25T01:20:41.235Z,1000.93
2018-08-25T01:21:21.652Z,1000.89
2018-08-25T01:22:02.056Z,1000.89
2018-08-25T01:22:42.438Z,1000.87
2018-08-25T01:23:22.920Z,1000.87
2018-08-25T01:24:03.260Z,1000.85
2018-08-25T01:24:43.653Z,1000.84
2018-08-25T01:25:24.160Z,1000.81
2018-08-25T01:26:04.482Z,1000.8
2018-08-25T01:26:44.863Z,1000.81
2018-08-25T01:27:25.261Z,1000.79
2018-08-25T01:28:05.695Z,1000.79
2018-08-25T01:28:46.137Z,1000.76
2018-08-25T01:29:26.528Z,1000.73
2018-08-25T01:30:07.067Z,1000.73
2018-08-25T01:30:47.311Z,1000.74
2018-08-25T01:31:27.741Z,1000.71
2018-08-25T01:32:08.147Z,1000.68
2018-08-25T01:32:48.705Z,1000.68
2018-08-25T01:33:29.210Z,1000.68
2018-08-25T01:34:09.471Z,1000.65
2018-08-25T01:34:49.834Z,1000.6
2018-08-25T01:35:30.276Z,1000.59
2018-08-25T01:36:10.782Z,1000.58
2018-08-25T01:36:51.182Z,1000.61
2018-08-25T01:37:31.456Z,1000.57
2018-08-25T01:38:11.926Z,1000.6
2018-08-25T01:38:52.381Z,1000.64
2018-08-25T01:39:32.745Z,1000.65
2018-08-25T01:40:13.203Z,1000.61
2018-08-25T01:40:53.502Z,1000.57
2018-08-25T01:41:34.045Z,1000.59
2018-08-25T01:42:14.432Z,1000.56
2018-08-25T01:42:54.764Z,1000.59
2018-08-25T01:43:35.165Z,1000.55
2018-08-25T01:44:15.616Z,1000.48
2018-08-25T01:44:55.992Z,1000.52
2018-08-25T01:45:36.453Z,1000.54
2018-08-25T01:46:16.834Z,1000.53
2018-08-25T01:46:57.323Z,1000.57
2018-08-25T01:47:37.627Z,1000.52
2018-08-25T01:48:18.016Z,1000.6
2018-08-25T01:48:58.479Z,1000.54
2018-08-25T01:49:38.858Z,1000.58
2018-08-25T01:50:19.279Z,1000.57
2018-08-25T01:50:59.683Z,1000.52
2018-08-25T01:51:40.156Z,1000.53
2018-08-25T01:52:20.542Z,1000.47
2018-08-25T01:53:00.931Z,1000.47
2018-08-25T01:53:41.459Z,1000.42
2018-08-25T01:54:21.784Z,1000.48
2018-08-25T01:55:02.262Z,1000.44
2018-08-25T01:55:42.653Z,1000.42
2018-08-25T01:56:23.109Z,1000.4
2018-08-25T01:57:03.458Z,1000.41
2018-08-25T01:57:43.941Z,1000.46
2018-08-25T01:58:24.332Z,1000.43
2018-08-25T01:59:04.682Z,1000.41
2018-08-25T01:59:45.101Z,1000.44
2018-08-25T02:00:25.438Z,1000.38
2018-08-25T02:01:05.844Z,1000.38
2018-08-25T02:01:46.300Z,1000.34
2018-08-25T02:02:27.035Z,1000.33
2018-08-25T02:03:07.325Z,1000.35
2018-08-25T02:03:47.743Z,1000.41
2018-08-25T02:04:28.198Z,1000.31
2018-08-25T02:05:08.790Z,1000.36
2018-08-25T02:05:49.091Z,1000.31
2018-08-25T02:06:29.530Z,1000.28
2018-08-25T02:07:09.947Z,1000.31
2018-08-25T02:07:50.339Z,1000.3
2018-08-25T02:08:30.752Z,1000.33
2018-08-25T02:09:11.340Z,1000.4
2018-08-25T02:09:51.692Z,1000.26
2018-08-25T02:10:32.317Z,1000.29
2018-08-25T02:11:12.531Z,1000.25
2018-08-25T02:11:52.927Z,1000.26
2018-08-25T02:12:33.342Z,1000.21
2018-08-25T02:13:13.818Z,1000.23
2018-08-25T02:13:54.174Z,1000.23
2018-08-25T02:14:34.630Z,1000.18
2018-08-25T02:15:15.016Z,1000.22
2018-08-25T02:15:55.385Z,1000.2
2018-08-25T02:16:35.774Z,1000.2
2018-08-25T02:17:16.297Z,1000.16
2018-08-25T02:17:56.665Z,1000.17
2018-08-25T02:18:37.280Z,1000.19
2018-08-25T02:19:17.509Z,1000.19
2018-08-25T02:19:57.852Z,1000.14
2018-08-25T02:20:38.228Z,1000.16
2018-08-25T02:21:18.756Z,1000.16
2018-08-25T02:21:59.117Z,1000.19
2018-08-25T02:22:39.585Z,1000.18
2018-08-25T02:23:19.972Z,1000.15
2018-08-25T02:24:00.415Z,1000.15
2018-08-25T02:24:40.880Z,1000.17
2018-08-25T02:25:21.274Z,1000.21
2018-08-25T02:26:01.792Z,1000.17
2018-08-25T02:26:42.106Z,1000.13
2018-08-25T02:27:22.716Z,1000.15
2018-08-25T02:28:03.515Z,1000.18
2018-08-25T02:28:43.968Z,1000.2
2018-08-25T02:29:24.359Z,1000.18
2018-08-25T02:30:04.783Z,1000.16
2018-08-25T02:30:45.233Z,1000.16
2018-08-25T02:31:25.830Z,1000.09
2018-08-25T02:32:06.030Z,1000.17
2018-08-25T02:32:46.443Z,1000.14
2018-08-25T02:33:26.910Z,1000.15
2018-08-25T02:34:07.305Z,1000.09
2018-08-25T02:34:48.643Z,1000.07
2018-08-25T02:35:29.049Z,1000.11
2018-08-25T02:36:09.448Z,1000.03
2018-08-25T02:36:49.793Z,1000.08
2018-08-25T02:37:30.257Z,1000.05
2018-08-25T02:38:10.864Z,1000.06
2018-08-25T02:38:51.540Z,1000.04
2018-08-25T02:39:31.876Z,1000.07
2018-08-25T02:40:12.288Z,1000.05
2018-08-25T02:40:52.831Z,1000.07
2018-08-25T02:41:33.157Z,1000.06
2018-08-25T02:42:14.317Z,1000.09
2018-08-25T02:42:54.734Z,1000.02
2018-08-25T02:43:35.312Z,1000.07
2018-08-25T02:44:15.674Z,1000.12
2018-08-25T02:44:57.063Z,1000.12
2018-08-25T02:45:37.463Z,1000.09
2018-08-25T02:46:17.820Z,1000.08
2018-08-25T02:46:58.225Z,1000.08
2018-08-25T02:47:38.562Z,1000.03
2018-08-25T02:48:19.023Z,1000.09
2018-08-25T02:48:59.551Z,1000.15
2018-08-25T02:49:40.231Z,1000.07
2018-08-25T02:50:20.647Z,1000.11
2018-08-25T02:51:01.288Z,1000.19
2018-08-25T02:53:22.642Z,1000.11
2018-08-25T02:54:02.691Z,1000.17
2018-08-25T02:54:43.297Z,1000.17
2018-08-25T02:55:24.264Z,1000.13
2018-08-25T02:56:04.779Z,1000.17
2018-08-25T02:56:45.118Z,1000.13
2018-08-25T02:57:25.846Z,1000.17
2018-08-25T02:58:06.232Z,1000.15
2018-08-25T02:58:47.025Z,1000.17
2018-08-25T02:59:28.026Z,1000.19
2018-08-25T03:00:09.431Z,1000.23
2018-08-25T03:02:40.483Z,1000.17
2018-08-25T03:03:21.216Z,1000.15
2018-08-25T03:04:01.677Z,1000.1
2018-08-25T03:04:42.049Z,1000.15
2018-08-25T03:05:22.954Z,1000.18
2018-08-25T03:06:03.235Z,1000.15
2018-08-25T03:10:47.569Z,1000.07
2018-08-25T03:11:28.459Z,1000.02
2018-08-25T03:12:08.964Z,1000.01
2018-08-25T03:12:49.608Z,1000.04
2018-08-25T03:13:30.045Z,1000
2018-08-25T03:14:10.475Z,1000.01
2018-08-25T03:14:51.260Z,1000.05
2018-08-25T03:15:31.894Z,1000.01
2018-08-25T03:16:12.886Z,1000.02
2018-08-25T03:16:53.207Z,1000.01
2018-08-25T03:17:33.616Z,999.96
2018-08-25T03:18:14.191Z,999.93
2018-08-25T03:18:54.684Z,999.96
2018-08-25T03:19:34.995Z,999.98
2018-08-25T03:20:16.782Z,999.93
2018-08-25T03:20:57.456Z,999.94
2018-08-25T03:21:37.895Z,999.94
2018-08-25T03:22:18.665Z,999.92
2018-08-25T03:22:59.033Z,999.93
2018-08-25T03:23:39.418Z,999.9
2018-08-25T03:24:19.816Z,999.94
2018-08-25T03:25:00.149Z,999.96
2018-08-25T03:25:40.755Z,999.96
2018-08-25T03:26:21.138Z,999.9
2018-08-25T03:27:01.889Z,999.9
2018-08-25T03:27:42.083Z,999.85
2018-08-25T03:28:22.628Z,999.9
2018-08-25T03:29:03.899Z,999.87
2018-08-25T03:29:44.290Z,999.84
2018-08-25T03:30:24.680Z,999.85
2018-08-25T03:31:05.202Z,999.83
2018-08-25T03:31:45.583Z,999.82
2018-08-25T03:32:26.014Z,999.86
2018-08-25T03:33:06.896Z,999.79
2018-08-25T03:33:47.225Z,999.84
2018-08-25T03:34:27.692Z,999.86
2018-08-25T03:35:08.606Z,999.85
2018-08-25T03:35:48.883Z,999.87
2018-08-25T03:36:29.148Z,999.91
2018-08-25T03:37:09.952Z,999.83
2018-08-25T03:37:53.507Z,999.76
2018-08-25T03:38:34.093Z,999.88
2018-08-25T03:39:14.663Z,999.87
2018-08-25T03:39:55.134Z,999.75
2018-08-25T03:40:35.564Z,999.83
2018-08-25T03:41:15.978Z,999.8
2018-08-25T03:41:56.334Z,999.81
2018-08-25T03:42:37.024Z,999.85
2018-08-25T03:43:17.909Z,999.76
2018-08-25T03:43:58.216Z,999.72
2018-08-25T03:44:39.378Z,999.78
2018-08-25T03:45:19.755Z,999.77
2018-08-25T03:46:00.318Z,999.76
2018-08-25T03:46:40.598Z,999.75
2018-08-25T03:47:20.966Z,999.78
2018-08-25T03:48:01.574Z,999.79
2018-08-25T03:48:42.827Z,999.77
2018-08-25T03:49:23.062Z,999.81
2018-08-25T03:50:03.727Z,999.8
2018-08-25T03:50:45.897Z,999.83
2018-08-25T03:51:26.240Z,999.83
2018-08-25T03:52:06.630Z,999.83
2018-08-25T03:52:47.397Z,999.82
2018-08-25T03:53:27.959Z,999.82
2018-08-25T03:54:09.385Z,999.78
2018-08-25T03:54:50.676Z,999.84
2018-08-25T03:55:32.138Z,999.88
2018-08-25T03:56:12.561Z,999.88
2018-08-25T03:56:53.022Z,999.88
2018-08-25T03:57:33.470Z,999.87
2018-08-25T03:58:14.781Z,999.88
2018-08-25T03:58:54.487Z,999.9
2018-08-25T03:59:35.181Z,999.89
2018-08-25T04:00:15.363Z,999.86
2018-08-25T04:00:55.804Z,999.87
2018-08-25T04:01:36.468Z,999.93
2018-08-25T04:02:16.809Z,999.94
2018-08-25T04:02:57.275Z,999.92
2018-08-25T04:03:37.677Z,999.91
2018-08-25T04:04:18.163Z,999.91
2018-08-25T04:04:58.525Z,999.86
2018-08-25T04:05:40.044Z,999.9
2018-08-25T04:06:20.629Z,999.84
2018-08-25T04:07:01.868Z,999.85
2018-08-25T04:07:41.427Z,999.85
2018-08-25T04:08:21.810Z,999.81
2018-08-25T04:09:02.298Z,999.8
2018-08-25T04:09:42.644Z,999.8
2018-08-25T04:10:23.132Z,999.79
2018-08-25T04:11:03.621Z,999.83
2018-08-25T04:11:44.037Z,999.83
2018-08-25T04:12:24.467Z,999.84
2018-08-25T04:13:05.200Z,999.83
2018-08-25T04:13:45.670Z,999.87
2018-08-25T04:14:26.186Z,999.93
2018-08-25T04:15:06.703Z,999.87
2018-08-25T04:15:47.127Z,999.83
2018-08-25T04:16:27.539Z,999.83
2018-08-25T04:17:08.695Z,999.87
2018-08-25T04:17:49.279Z,999.86
2018-08-25T04:18:31.578Z,999.86
2018-08-25T04:19:12.201Z,999.9
2018-08-25T04:19:52.825Z,999.63
2018-08-25T04:20:33.033Z,999.76
2018-08-25T04:21:13.480Z,999.77
2018-08-25T04:21:54.809Z,999.73
2018-08-25T04:22:35.319Z,999.79
2018-08-25T04:23:16.483Z,999.77
2018-08-25T04:23:56.831Z,999.83
2018-08-25T04:24:37.280Z,999.85
2018-08-25T04:25:18.389Z,999.73
2018-08-25T04:25:59.953Z,999.78
2018-08-25T04:26:40.337Z,999.84
2018-08-25T04:27:22.311Z,999.85
2018-08-25T05:15:03.858Z,1000.2
2018-08-25T05:15:44.270Z,1000.23
2018-08-25T05:16:24.780Z,1000.25
2018-08-25T05:17:06.010Z,1000.19
2018-08-25T05:17:46.419Z,1000.25
2018-08-25T05:18:26.813Z,1000.26
2018-08-25T05:19:07.298Z,1000.29
2018-08-25T05:19:47.627Z,1000.27
2018-08-25T05:20:28.054Z,1000.3
2018-08-25T05:21:08.448Z,1000.3
2018-08-25T05:21:48.842Z,1000.33
2018-08-25T05:22:30.838Z,1000.27
2018-08-25T05:23:10.957Z,1000.32
2018-08-25T05:23:51.343Z,1000.25
2018-08-25T05:24:32.511Z,1000.23
2018-08-25T05:25:12.897Z,1000.28
2018-08-25T05:25:53.327Z,1000.31
2018-08-25T05:26:34.507Z,1000.26
2018-08-25T05:27:14.925Z,1000.25
2018-08-25T05:29:42.657Z,1000.31
2018-08-25T05:30:25.514Z,1000.36
2018-08-25T05:31:06.025Z,1000.36
2018-08-25T05:31:46.521Z,1000.38
2018-08-25T05:32:26.801Z,1000.38
2018-08-25T05:33:07.230Z,1000.38
2018-08-25T05:33:47.772Z,1000.41
2018-08-25T05:34:28.155Z,1000.4
2018-08-25T05:35:08.517Z,1000.4
2018-08-25T05:35:48.952Z,1000.41
2018-08-25T05:36:29.311Z,1000.43
2018-08-25T05:37:09.918Z,1000.46
2018-08-25T05:37:50.273Z,1000.4
2018-08-25T05:38:30.640Z,1000.43
2018-08-25T05:39:11.093Z,1000.38
2018-08-25T05:39:51.524Z,1000.42
2018-08-25T05:40:32.070Z,1000.31
2018-08-25T05:41:12.674Z,1000.38
2018-08-25T05:41:53.142Z,1000.41
2018-08-25T05:42:33.557Z,1000.43
2018-08-25T05:43:13.941Z,1000.36
2018-08-25T05:43:54.298Z,1000.39
2018-08-25T05:44:34.771Z,1000.39
2018-08-25T05:45:15.169Z,1000.39
2018-08-25T05:45:55.646Z,1000.31
2018-08-25T05:46:36.063Z,1000.34
2018-08-25T05:47:16.451Z,1000.4
2018-08-25T05:47:56.845Z,1000.44
2018-08-25T05:48:37.258Z,1000.45
2018-08-25T05:49:17.708Z,1000.37
2018-08-25T05:49:58.103Z,1000.4
2018-08-25T05:50:38.470Z,1000.44
2018-08-25T05:51:18.898Z,1000.45
2018-08-25T05:51:59.364Z,1000.45
2018-08-25T05:52:39.709Z,1000.46
2018-08-25T05:53:20.103Z,1000.42
2018-08-25T05:54:00.572Z,1000.5
2018-08-25T05:54:41.005Z,1000.42
2018-08-25T05:55:21.466Z,1000.46
2018-08-25T05:56:01.898Z,1000.48
2018-08-25T05:56:42.279Z,1000.5
2018-08-25T05:57:22.695Z,1000.48
2018-08-25T05:58:05.923Z,1000.62
2018-08-25T05:58:46.314Z,1000.53
2018-08-25T05:59:26.811Z,1000.54
2018-08-25T06:00:07.131Z,1000.52
2018-08-25T06:00:47.685Z,1000.54
2018-08-25T06:01:28.240Z,1000.54
2018-08-25T06:02:09.125Z,1000.56
2018-08-25T06:02:49.321Z,1000.49
2018-08-25T06:03:29.750Z,1000.54
2018-08-25T06:04:10.106Z,1000.52
2018-08-25T06:04:50.535Z,1000.56
2018-08-25T06:05:30.968Z,1000.6
2018-08-25T06:06:11.391Z,1000.55
2018-08-25T06:06:51.768Z,1000.54
2018-08-25T06:07:32.237Z,1000.59
2018-08-25T06:08:12.615Z,1000.59
2018-08-25T06:08:53.010Z,1000.6
2018-08-25T06:09:33.377Z,1000.62
2018-08-25T06:10:13.790Z,1000.65
2018-08-25T06:10:54.250Z,1000.64
2018-08-25T06:11:34.613Z,1000.68
2018-08-25T06:12:15.044Z,1000.7
2018-08-25T06:12:55.467Z,1000.72
2018-08-25T06:13:35.944Z,1000.74
2018-08-25T06:14:16.277Z,1000.77
2018-08-25T06:14:56.706Z,1000.7
2018-08-25T06:15:37.101Z,1000.73
2018-08-25T06:16:17.512Z,1000.79
2018-08-25T06:16:58.291Z,1000.71
2018-08-25T06:17:38.923Z,1000.8
2018-08-25T06:18:19.379Z,1000.87
2018-08-25T06:19:00.034Z,1000.8
2018-08-25T06:19:40.485Z,1000.88
2018-08-25T06:20:21.103Z,1000.87
2018-08-25T06:21:01.431Z,1000.86
2018-08-25T06:21:41.765Z,1000.88
2018-08-25T06:22:22.465Z,1000.86
2018-08-25T06:23:02.883Z,1000.86
2018-08-25T06:23:43.259Z,1000.77
2018-08-25T06:24:23.666Z,1000.81
2018-08-25T06:25:04.085Z,1000.88
2018-08-25T06:25:44.783Z,1000.96
2018-08-25T06:26:25.096Z,1000.88
2018-08-25T06:27:05.619Z,1000.87
2018-08-25T06:27:46.041Z,1000.91
2018-08-25T06:28:27.179Z,1000.82
2018-08-25T06:29:07.496Z,1000.83
2018-08-25T06:29:48.304Z,1000.87
2018-08-25T06:30:28.447Z,1000.91
2018-08-25T06:31:08.846Z,1000.88
2018-08-25T06:31:49.527Z,1000.88
2018-08-25T06:32:29.950Z,1000.88
2018-08-25T06:33:10.838Z,1000.91
2018-08-25T06:33:51.151Z,1000.93
2018-08-25T06:34:31.553Z,1000.96
2018-08-25T06:35:11.931Z,1000.98
2018-08-25T06:35:53.029Z,1000.96
2018-08-25T06:36:33.604Z,1001.01
2018-08-25T06:37:14.023Z,1000.98
2018-08-25T06:37:54.517Z,1000.89
2018-08-25T06:38:34.892Z,1000.84
2018-08-25T06:39:15.342Z,1000.85
2018-08-25T06:39:56.010Z,1000.91
2018-08-25T06:40:37.241Z,1000.88
2018-08-25T06:41:18.505Z,1000.97
2018-08-25T06:41:59.024Z,1000.95
2018-08-25T06:42:39.600Z,1000.97
2018-08-25T06:43:20.298Z,1000.98
2018-08-25T06:44:00.721Z,1001
2018-08-25T06:44:41.109Z,1000.95
2018-08-25T06:46:48.213Z,1001.01
2018-08-25T06:47:40.770Z,1001
2018-08-25T06:48:34.206Z,1001.01
2018-08-25T06:49:30.744Z,1001.01
2018-08-25T06:50:31.856Z,1001.02
2018-08-25T06:53:25.760Z,1000.99
2018-08-25T06:54:19.911Z,1000.99
2018-08-25T06:55:13.218Z,1000.99
2018-08-25T06:56:06.868Z,1000.95
2018-08-25T06:56:59.208Z,1001.02
2018-08-25T06:57:51.485Z,1001.02
2018-08-25T06:58:47.493Z,1001.09
2018-08-25T06:59:39.822Z,1001.08
2018-08-25T07:00:32.122Z,1001.08
2018-08-25T07:01:24.574Z,1001.05
2018-08-25T07:02:15.632Z,1001.06
2018-08-25T07:04:21.485Z,1001.08
2018-08-25T07:05:20.336Z,1001.08
2018-08-25T07:06:19.458Z,1001.1
2018-08-25T07:07:17.645Z,1001.01
2018-08-25T07:08:14.028Z,1001.05
2018-08-25T07:09:07.543Z,1001.06
2018-08-25T07:10:10.343Z,1001.09
2018-08-25T07:11:09.466Z,1001.12
2018-08-25T07:12:05.111Z,1001.07
2018-08-25T07:12:57.486Z,1001.16
2018-08-25T07:13:51.964Z,1001.1
2018-08-25T07:14:47.884Z,1001.08
2018-08-25T07:15:42.074Z,1001.21
2018-08-25T07:16:38.026Z,1001.15
2018-08-25T07:17:32.265Z,1001.01
2018-08-25T07:18:13.277Z,1001.15
2018-08-25T07:18:53.730Z,1001.12
2018-08-25T07:19:34.126Z,1001.16
2018-08-25T07:20:18.300Z,1001.15
2018-08-25T07:21:05.738Z,1001.17
2018-08-25T07:21:46.993Z,1001.23
2018-08-25T07:22:28.324Z,1001.21
2018-08-25T07:23:09.797Z,1001.25
2018-08-25T07:24:00.370Z,1001.27
2018-08-25T07:24:40.552Z,1001.23
2018-08-25T07:25:20.984Z,1001.3
2018-08-25T07:26:01.444Z,1001.24
2018-08-25T07:26:41.747Z,1001.3
2018-08-25T07:27:22.364Z,1001.3
2018-08-25T07:28:02.697Z,1001.33
2018-08-25T07:28:43.116Z,1001.35
2018-08-25T07:29:23.549Z,1001.19
2018-08-25T07:30:03.950Z,1001.31
2018-08-25T07:30:44.326Z,1001.33
2018-08-25T07:31:24.754Z,1001.32
2018-08-25T07:32:05.246Z,1001.34
2018-08-25T07:32:45.602Z,1001.33
2018-08-25T07:33:26.167Z,1001.31
2018-08-25T07:34:06.505Z,1001.31
2018-08-25T07:34:48.219Z,1001.33
2018-08-25T07:35:36.830Z,1001.36
2018-08-25T07:36:19.340Z,1001.35
2018-08-25T07:37:00.427Z,1001.41
2018-08-25T07:37:42.522Z,1001.33
2018-08-25T07:38:23.864Z,1001.31
2018-08-25T07:39:04.718Z,1001.34
2018-08-25T07:41:40.175Z,1001.25
2018-08-25T07:42:35.773Z,1001.43
2018-08-25T07:43:27.870Z,1001.41
2018-08-25T07:44:22.649Z,1001.39
2018-08-25T07:45:18.896Z,1001.37
2018-08-25T07:46:12.172Z,1001.45
2018-08-25T07:47:06.188Z,1001.37
2018-08-25T07:48:02.255Z,1001.42
2018-08-25T07:48:58.011Z,1001.44
2018-08-25T07:49:50.269Z,1001.47
2018-08-25T07:50:49.506Z,1001.47
2018-08-25T07:51:42.892Z,1001.41
2018-08-25T07:54:32.892Z,1001.49
2018-08-25T07:55:31.501Z,1001.5
2018-08-25T07:56:31.469Z,1001.51
2018-08-25T07:57:27.698Z,1001.5
2018-08-25T07:58:21.697Z,1001.56
2018-08-25T07:59:15.115Z,1001.51
2018-08-25T08:00:10.124Z,1001.52
2018-08-25T08:01:04.963Z,1001.53
2018-08-25T08:01:55.476Z,1001.53
2018-08-25T08:02:36.812Z,1001.47
2018-08-25T08:03:17.280Z,1001.52
2018-08-25T08:03:57.619Z,1001.54
2018-08-25T08:04:38.121Z,1001.48
2018-08-25T08:05:18.419Z,1001.49
2018-08-25T08:05:58.869Z,1001.42
2018-08-25T08:06:39.239Z,1001.51
2018-08-25T08:07:19.664Z,1001.46
2018-08-25T08:08:00.069Z,1001.52
2018-08-25T08:08:40.530Z,1001.52
2018-08-25T08:09:20.960Z,1001.53
2018-08-25T08:10:01.336Z,1001.6
2018-08-25T08:10:41.792Z,1001.58
2018-08-25T08:11:22.184Z,1001.6
2018-08-25T08:12:02.646Z,1001.6
2018-08-25T08:12:42.935Z,1001.6
2018-08-25T08:13:23.382Z,1001.56
2018-08-25T08:14:03.857Z,1001.64
2018-08-25T08:14:44.312Z,1001.7
2018-08-25T08:15:24.691Z,1001.7
2018-08-25T08:16:05.815Z,1001.57
2018-08-25T08:16:45.488Z,1001.75
2018-08-25T08:17:25.873Z,1001.73
2018-08-25T08:18:06.283Z,1001.75
2018-08-25T08:18:46.686Z,1001.79
2018-08-25T08:19:27.066Z,1001.7
2018-08-25T08:20:07.511Z,1001.75
2018-08-25T08:20:47.997Z,1001.77
2018-08-25T08:21:28.328Z,1001.8
2018-08-25T08:22:08.763Z,1001.82
2018-08-25T08:22:49.163Z,1001.79
2018-08-25T08:23:29.534Z,1001.74
2018-08-25T08:24:09.951Z,1001.75
2018-08-25T08:24:50.337Z,1001.67
2018-08-25T08:25:30.806Z,1001.76
2018-08-25T08:26:11.230Z,1001.85
2018-08-25T08:26:51.658Z,1001.85
2018-08-25T08:27:32.068Z,1001.73
2018-08-25T08:28:12.437Z,1001.8
2018-08-25T08:28:52.825Z,1001.81
2018-08-25T08:29:33.268Z,1001.81
2018-08-25T08:30:13.642Z,1001.82
2018-08-25T08:30:54.163Z,1001.83
2018-08-25T08:31:34.532Z,1001.76
2018-08-25T08:32:15.820Z,1001.78
2018-08-25T08:32:55.631Z,1001.82
2018-08-25T08:33:35.962Z,1001.74
2018-08-25T08:34:16.385Z,1001.9
2018-08-25T08:34:56.792Z,1001.79
2018-08-25T08:35:37.262Z,1002.02
2018-08-25T08:36:17.630Z,1001.81
2018-08-25T08:36:58.048Z,1001.92
2018-08-25T08:37:38.506Z,1001.82
2018-08-25T08:38:19.279Z,1001.81
2018-08-25T08:38:59.758Z,1001.89
2018-08-25T08:39:40.502Z,1001.82
2018-08-25T08:40:20.677Z,1001.93
2018-08-25T08:41:01.104Z,1001.94
2018-08-25T08:41:41.524Z,1001.89
2018-08-25T08:42:22.039Z,1001.96
2018-08-25T08:43:02.371Z,1001.9
2018-08-25T08:43:42.731Z,1001.95
2018-08-25T08:44:23.215Z,1001.87
2018-08-25T08:45:03.864Z,1001.87
2018-08-25T08:45:44.181Z,1001.91
2018-08-25T08:46:24.590Z,1001.79
2018-08-25T08:49:01.215Z,1001.88
2018-08-25T08:49:47.043Z,1001.98
2018-08-25T08:50:27.063Z,1001.95
2018-08-25T08:51:07.465Z,1001.97
2018-08-25T08:51:47.923Z,1002.02
2018-08-25T08:52:28.326Z,1001.95
2018-08-25T08:53:08.772Z,1002.01
2018-08-25T08:53:49.197Z,1001.97
2018-08-25T08:54:29.645Z,1002.04
2018-08-25T08:55:10.049Z,1002.07
2018-08-25T08:55:51.349Z,1002.1
2018-08-25T08:56:34.724Z,1002.1
2018-08-25T08:57:15.349Z,1002.08
2018-08-25T08:57:56.174Z,1002.1
2018-08-25T08:58:36.582Z,1002.16
2018-08-25T08:59:18.549Z,1002.16
2018-08-25T09:00:00.266Z,1002.13
2018-08-25T09:00:45.063Z,1002.13
2018-08-25T09:01:27.590Z,1002.15
2018-08-25T09:02:09.057Z,1002.1
2018-08-25T09:02:49.876Z,1002.16
2018-08-25T09:03:32.524Z,1002.18
2018-08-25T09:04:16.058Z,1002.2
2018-08-25T09:04:57.976Z,1002.2
2018-08-25T09:05:41.523Z,1002.18
2018-08-25T09:06:23.660Z,1002.16
2018-08-25T09:07:06.629Z,1002.21
2018-08-25T09:07:49.900Z,1002.24
2018-08-25T09:08:31.956Z,1002.24
2018-08-25T09:10:35.186Z,1002.26
2018-08-25T09:13:24.509Z,1002.49
2018-08-25T09:14:20.811Z,1002.31
2018-08-25T09:15:15.541Z,1002.31
2018-08-25T09:16:12.496Z,1002.41
2018-08-25T09:17:10.417Z,1002.43
2018-08-25T09:18:05.299Z,1002.55
2018-08-25T09:18:58.700Z,1002.37
2018-08-25T09:19:54.812Z,1002.42
2018-08-25T09:20:49.897Z,1002.43
2018-08-25T09:21:43.752Z,1002.38
2018-08-25T09:22:41.392Z,1002.45
2018-08-25T09:26:52.484Z,1002.45
2018-08-25T09:27:47.362Z,1002.46
2018-08-25T09:28:42.967Z,1002.28
2018-08-25T09:29:38.475Z,1002.46
2018-08-25T09:30:34.763Z,1002.41
2018-08-25T09:31:30.369Z,1002.42
2018-08-25T09:32:24.093Z,1002.48
2018-08-25T09:33:21.804Z,1002.47
2018-08-25T09:34:19.742Z,1002.5
2018-08-25T09:35:22.202Z,1002.57
2018-08-25T09:36:17.147Z,1002.52
2018-08-25T09:37:23.662Z,1002.53
2018-08-25T09:38:30.196Z,1002.44
2018-08-25T09:44:36.911Z,1002.45
2018-08-25T09:45:31.663Z,1002.55
2018-08-25T09:46:24.651Z,1002.5
2018-08-25T09:47:21.064Z,1002.54
2018-08-25T09:48:17.692Z,1002.5
2018-08-25T09:49:15.103Z,1002.48
2018-08-25T09:50:10.517Z,1002.52
2018-08-25T09:51:07.375Z,1002.51
2018-08-25T09:52:09.001Z,1002.5
2018-08-25T09:53:08.580Z,1002.48
2018-08-25T09:54:02.971Z,1002.48
2018-08-25T09:54:59.099Z,1002.49
2018-08-25T09:55:58.215Z,1002.47
2018-08-25T09:56:55.150Z,1002.48
2018-08-25T09:57:50.918Z,1002.53
2018-08-25T09:58:46.955Z,1002.55
2018-08-25T09:59:48.241Z,1002.48
2018-08-25T10:00:45.775Z,1002.66
2018-08-25T10:01:56.080Z,1002.54
2018-08-25T10:02:50.823Z,1002.61
2018-08-25T10:03:43.254Z,1002.56
2018-08-25T10:04:40.230Z,1002.58
2018-08-25T10:05:36.823Z,1002.46
2018-08-25T10:06:33.221Z,1002.5
2018-08-25T10:07:26.579Z,1002.53
2018-08-25T10:08:18.451Z,1002.61
2018-08-25T10:09:02.681Z,1002.64
2018-08-25T10:09:43.866Z,1002.58
2018-08-25T10:12:16.481Z,1002.68
2018-08-25T10:13:10.467Z,1002.65